sensor_id;sensor_type;location;lat;lon;timestamp;pressure;altitude;pressure_sealevel;temperature;humidity
71057;BME280;58380;48.312;9.246;2023-03-16T06:41:30;93624.75;;;-3.20;100.00
71057;BME280;58380;48.312;9.246;2023-03-16T06:43:55;93686.59;;;-2.66;100.00
71057;BME280;58380;48.312;9.246;2023-03-16T06:46:21;93688.41;;;-2.51;100.00
71057;BME280;58380;48.312;9.246;2023-03-16T06:48:47;93676.13;;;-2.49;100.00
71057;BME280;58380;48.312;9.246;2023-03-16T06:51:12;93696.47;;;-2.31;100.00
71057;BME280;58380;48.312;9.246;2023-03-16T06:53:38;93663.22;;;-2.34;100.00
71057;BME280;58380;48.312;9.246;2023-03-16T06:56:04;93587.53;;;-2.58;100.00
71057;BME280;58380;48.312;9.246;2023-03-16T06:58:29;93653.56;;;-1.96;100.00
71057;BME280;58380;48.312;9.246;2023-03-16T07:00:55;93655.88;;;-1.86;100.00
71057;BME280;58380;48.312;9.246;2023-03-16T07:03:20;93703.56;;;-1.59;100.00
71057;BME280;58380;48.312;9.246;2023-03-16T07:05:46;93661.06;;;-1.65;100.00
71057;BME280;58380;48.312;9.246;2023-03-16T07:08:12;93662.91;;;-1.44;100.00
71057;BME280;58380;48.312;9.246;2023-03-16T07:10:39;93697.09;;;-1.12;100.00
71057;BME280;58380;48.312;9.246;2023-03-16T07:13:06;93693.03;;;-1.00;100.00
71057;BME280;58380;48.312;9.246;2023-03-16T07:15:31;93690.94;;;-0.90;100.00
71057;BME280;58380;48.312;9.246;2023-03-16T07:17:57;93681.75;;;-0.92;100.00
71057;BME280;58380;48.312;9.246;2023-03-16T07:20:22;93688.88;;;-0.73;100.00
71057;BME280;58380;48.312;9.246;2023-03-16T07:22:48;93705.16;;;-0.57;100.00
71057;BME280;58380;48.312;9.246;2023-03-16T07:25:13;93654.53;;;-0.81;99.47
71057;BME280;58380;48.312;9.246;2023-03-16T07:27:39;93660.19;;;-0.71;100.00
71057;BME280;58380;48.312;9.246;2023-03-16T07:30:06;93687.50;;;-0.40;100.00
71057;BME280;58380;48.312;9.246;2023-03-16T07:32:32;93705.06;;;-0.14;100.00
71057;BME280;58380;48.312;9.246;2023-03-16T07:34:58;93662.16;;;-0.17;100.00
71057;BME280;58380;48.312;9.246;2023-03-16T07:37:26;93694.47;;;0.15;100.00
71057;BME280;58380;48.312;9.246;2023-03-16T07:39:52;93691.88;;;0.22;98.75
71057;BME280;58380;48.312;9.246;2023-03-16T07:42:17;93673.09;;;0.20;99.45
71057;BME280;58380;48.312;9.246;2023-03-16T07:44:43;93606.25;;;-0.19;97.20
71057;BME280;58380;48.312;9.246;2023-03-16T07:47:13;93711.25;;;0.68;97.08
71057;BME280;58380;48.312;9.246;2023-03-16T07:49:38;93654.84;;;0.55;96.67
71057;BME280;58380;48.312;9.246;2023-03-16T07:52:05;93704.25;;;0.75;93.86
71057;BME280;58380;48.312;9.246;2023-03-16T07:54:31;93698.28;;;0.68;93.53
71057;BME280;58380;48.312;9.246;2023-03-16T07:56:56;93656.66;;;0.48;93.16
71057;BME280;58380;48.312;9.246;2023-03-16T07:59:22;93679.81;;;0.49;92.92
71057;BME280;58380;48.312;9.246;2023-03-16T08:01:47;93653.47;;;0.59;96.18
71057;BME280;58380;48.312;9.246;2023-03-16T08:04:13;93708.16;;;1.19;96.42
71057;BME280;58380;48.312;9.246;2023-03-16T08:06:38;93646.19;;;1.16;95.08
71057;BME280;58380;48.312;9.246;2023-03-16T08:09:04;93671.78;;;1.39;92.47
71057;BME280;58380;48.312;9.246;2023-03-16T08:11:30;93674.97;;;1.34;89.57
71057;BME280;58380;48.312;9.246;2023-03-16T08:13:55;93668.19;;;1.46;91.34
71057;BME280;58380;48.312;9.246;2023-03-16T08:16:22;93705.19;;;1.68;88.79
71057;BME280;58380;48.312;9.246;2023-03-16T08:18:49;93664.59;;;1.41;88.38
71057;BME280;58380;48.312;9.246;2023-03-16T08:21:16;93702.41;;;1.63;89.71
71057;BME280;58380;48.312;9.246;2023-03-16T08:23:43;93669.38;;;1.57;89.38
71057;BME280;58380;48.312;9.246;2023-03-16T08:26:14;93691.19;;;1.83;89.79
71057;BME280;58380;48.312;9.246;2023-03-16T08:28:44;93683.31;;;2.16;90.37
71057;BME280;58380;48.312;9.246;2023-03-16T08:31:11;93696.22;;;2.49;88.06
71057;BME280;58380;48.312;9.246;2023-03-16T08:33:42;93659.78;;;2.43;86.58
71057;BME280;58380;48.312;9.246;2023-03-16T08:36:10;93690.56;;;2.59;85.35
71057;BME280;58380;48.312;9.246;2023-03-16T08:38:38;93695.06;;;2.84;85.26
71057;BME280;58380;48.312;9.246;2023-03-16T08:41:07;93705.06;;;2.93;82.73
71057;BME280;58380;48.312;9.246;2023-03-16T08:43:33;93703.06;;;2.89;82.07
71057;BME280;58380;48.312;9.246;2023-03-16T08:46:01;93657.78;;;2.83;83.45
71057;BME280;58380;48.312;9.246;2023-03-16T08:48:27;93687.91;;;3.11;81.42
71057;BME280;58380;48.312;9.246;2023-03-16T08:50:53;93689.63;;;3.23;79.58
71057;BME280;58380;48.312;9.246;2023-03-16T08:53:19;93693.00;;;3.31;83.61
71057;BME280;58380;48.312;9.246;2023-03-16T08:55:46;93671.53;;;3.29;79.72
71057;BME280;58380;48.312;9.246;2023-03-16T08:58:12;93691.16;;;3.38;80.14
71057;BME280;58380;48.312;9.246;2023-03-16T09:00:38;93663.72;;;3.29;78.09
71057;BME280;58380;48.312;9.246;2023-03-16T09:03:05;93687.66;;;3.51;81.11
71057;BME280;58380;48.312;9.246;2023-03-16T09:05:30;93685.06;;;3.44;78.30
71057;BME280;58380;48.312;9.246;2023-03-16T09:07:58;93672.66;;;3.39;77.88
71057;BME280;58380;48.312;9.246;2023-03-16T09:10:24;93645.13;;;3.18;75.25
71057;BME280;58380;48.312;9.246;2023-03-16T09:12:52;93680.56;;;3.58;74.49
71057;BME280;58380;48.312;9.246;2023-03-16T09:15:19;93675.66;;;3.68;76.90
71057;BME280;58380;48.312;9.246;2023-03-16T09:17:46;93640.72;;;3.44;76.10
71057;BME280;58380;48.312;9.246;2023-03-16T09:20:14;93671.03;;;3.70;74.37
71057;BME280;58380;48.312;9.246;2023-03-16T09:22:45;93665.38;;;3.73;75.96
71057;BME280;58380;48.312;9.246;2023-03-16T09:25:10;93654.94;;;3.73;74.29
71057;BME280;58380;48.312;9.246;2023-03-16T09:27:36;93662.72;;;3.98;75.75
71057;BME280;58380;48.312;9.246;2023-03-16T09:30:04;93661.81;;;4.29;75.52
71057;BME280;58380;48.312;9.246;2023-03-16T09:32:32;93648.09;;;4.16;72.31
71057;BME280;58380;48.312;9.246;2023-03-16T09:34:57;93622.41;;;4.13;72.91
71057;BME280;58380;48.312;9.246;2023-03-16T09:37:23;93646.16;;;4.29;69.94
71057;BME280;58380;48.312;9.246;2023-03-16T09:39:50;93659.91;;;4.37;66.63
71057;BME280;58380;48.312;9.246;2023-03-16T09:42:36;93640.41;;;4.21;65.18
71057;BME280;58380;48.312;9.246;2023-03-16T09:45:29;93647.28;;;4.33;65.63
71057;BME280;58380;48.312;9.246;2023-03-16T09:48:11;93600.84;;;4.17;66.52
71057;BME280;58380;48.312;9.246;2023-03-16T09:50:40;93619.72;;;4.38;65.24
71057;BME280;58380;48.312;9.246;2023-03-16T09:53:21;93651.56;;;4.65;66.91
71057;BME280;58380;48.312;9.246;2023-03-16T09:56:13;93635.94;;;4.58;69.27
71057;BME280;58380;48.312;9.246;2023-03-16T09:58:43;93629.75;;;4.71;65.87
71057;BME280;58380;48.312;9.246;2023-03-16T10:06:54;93610.28;;;4.97;65.59
71057;BME280;58380;48.312;9.246;2023-03-16T10:09:35;93633.56;;;5.17;66.54
71057;BME280;58380;48.312;9.246;2023-03-16T10:12:07;93630.78;;;5.00;65.04
71057;BME280;58380;48.312;9.246;2023-03-16T10:14:41;93642.22;;;5.29;67.03
71057;BME280;58380;48.312;9.246;2023-03-16T10:17:21;93595.31;;;5.16;63.41
71057;BME280;58380;48.312;9.246;2023-03-16T10:19:53;93624.81;;;5.35;60.74
71057;BME280;58380;48.312;9.246;2023-03-16T10:22:26;93616.50;;;5.38;63.26
71057;BME280;58380;48.312;9.246;2023-03-16T10:25:08;93629.06;;;5.48;57.83
71057;BME280;58380;48.312;9.246;2023-03-16T10:27:43;93606.50;;;5.35;57.27
71057;BME280;58380;48.312;9.246;2023-03-16T10:30:26;93644.06;;;5.64;57.86
71057;BME280;58380;48.312;9.246;2023-03-16T10:32:55;93608.91;;;5.48;55.22
71057;BME280;58380;48.312;9.246;2023-03-16T10:35:51;93640.09;;;5.61;57.21
71057;BME280;58380;48.312;9.246;2023-03-16T10:43:51;93608.91;;;5.60;54.87
71057;BME280;58380;48.312;9.246;2023-03-16T10:46:19;93586.59;;;5.46;60.84
71057;BME280;58380;48.312;9.246;2023-03-16T10:48:59;93610.75;;;5.59;58.30
71057;BME280;58380;48.312;9.246;2023-03-16T10:51:30;93619.16;;;5.73;57.27
71057;BME280;58380;48.312;9.246;2023-03-16T10:54:14;93616.66;;;5.55;59.01
71057;BME280;58380;48.312;9.246;2023-03-16T10:56:43;93621.31;;;5.53;57.70
71057;BME280;58380;48.312;9.246;2023-03-16T10:59:31;93615.97;;;5.48;57.43
71057;BME280;58380;48.312;9.246;2023-03-16T11:02:00;93632.47;;;5.48;55.83
71057;BME280;58380;48.312;9.246;2023-03-16T11:04:31;93615.16;;;5.47;59.64
71057;BME280;58380;48.312;9.246;2023-03-16T11:06:58;93611.44;;;5.67;53.26
71057;BME280;58380;48.312;9.246;2023-03-16T11:09:33;93588.09;;;5.77;56.51
71057;BME280;58380;48.312;9.246;2023-03-16T11:12:18;93597.78;;;6.00;52.92
71057;BME280;58380;48.312;9.246;2023-03-16T11:14:48;93503.97;;;5.50;54.80
71057;BME280;58380;48.312;9.246;2023-03-16T11:17:18;93580.00;;;6.02;54.37
71057;BME280;58380;48.312;9.246;2023-03-16T11:19:53;93603.31;;;6.15;54.12
71057;BME280;58380;48.312;9.246;2023-03-16T11:22:25;93602.38;;;6.21;56.54
71057;BME280;58380;48.312;9.246;2023-03-16T11:24:59;93565.63;;;6.04;56.77
71057;BME280;58380;48.312;9.246;2023-03-16T11:27:55;93608.47;;;6.22;57.82
71057;BME280;58380;48.312;9.246;2023-03-16T11:30:34;93604.22;;;6.21;56.48
71057;BME280;58380;48.312;9.246;2023-03-16T11:33:13;93599.72;;;6.04;55.22
71057;BME280;58380;48.312;9.246;2023-03-16T11:44:50;93589.13;;;5.99;56.48
71057;BME280;58380;48.312;9.246;2023-03-16T11:50:19;93592.28;;;6.13;52.42
71057;BME280;58380;48.312;9.246;2023-03-16T11:55:48;93564.38;;;6.07;49.69
71057;BME280;58380;48.312;9.246;2023-03-16T12:05:29;93573.31;;;6.35;49.95
71057;BME280;58380;48.312;9.246;2023-03-16T12:10:15;93550.53;;;6.23;50.47
71057;BME280;58380;48.312;9.246;2023-03-16T12:12:54;93552.81;;;6.60;49.56
71057;BME280;58380;48.312;9.246;2023-03-16T12:15:49;93524.97;;;6.42;51.81
71057;BME280;58380;48.312;9.246;2023-03-16T12:18:23;93538.38;;;6.75;49.56
71057;BME280;58380;48.312;9.246;2023-03-16T12:21:03;93543.50;;;6.98;56.31
71057;BME280;58380;48.312;9.246;2023-03-16T12:23:38;93545.09;;;6.99;55.02
71057;BME280;58380;48.312;9.246;2023-03-16T12:26:07;93556.88;;;7.13;51.61
71057;BME280;58380;48.312;9.246;2023-03-16T12:28:33;93550.28;;;7.28;50.63
71057;BME280;58380;48.312;9.246;2023-03-16T12:31:20;93554.75;;;7.44;51.60
71057;BME280;58380;48.312;9.246;2023-03-16T12:43:08;93529.56;;;7.65;49.05
71057;BME280;58380;48.312;9.246;2023-03-16T12:46:09;93537.44;;;8.04;45.18
71057;BME280;58380;48.312;9.246;2023-03-16T12:48:48;93510.94;;;8.11;44.69
71057;BME280;58380;48.312;9.246;2023-03-16T12:51:18;93499.59;;;8.05;47.92
71057;BME280;58380;48.312;9.246;2023-03-16T12:56:44;93531.25;;;8.15;43.28
71057;BME280;58380;48.312;9.246;2023-03-16T12:59:18;93534.13;;;8.36;47.09
71057;BME280;58380;48.312;9.246;2023-03-16T13:01:51;93522.81;;;8.57;43.34
71057;BME280;58380;48.312;9.246;2023-03-16T13:04:30;93514.75;;;8.42;47.67
71057;BME280;58380;48.312;9.246;2023-03-16T13:07:00;93532.63;;;8.40;49.69
71057;BME280;58380;48.312;9.246;2023-03-16T13:09:29;93505.41;;;8.07;48.84
71057;BME280;58380;48.312;9.246;2023-03-16T13:11:56;93515.66;;;7.87;52.16
71057;BME280;58380;48.312;9.246;2023-03-16T13:14:40;93537.19;;;8.06;51.73
71057;BME280;58380;48.312;9.246;2023-03-16T13:20:48;93529.63;;;7.70;53.88
71057;BME280;58380;48.312;9.246;2023-03-16T13:23:05;93490.91;;;7.44;54.76
71057;BME280;58380;48.312;9.246;2023-03-16T13:25:45;93512.34;;;7.74;55.07
71057;BME280;58380;48.312;9.246;2023-03-16T13:28:29;93539.19;;;7.60;55.45
71057;BME280;58380;48.312;9.246;2023-03-16T13:30:57;93525.91;;;7.66;55.50
71057;BME280;58380;48.312;9.246;2023-03-16T13:33:29;93537.22;;;7.50;55.32
71057;BME280;58380;48.312;9.246;2023-03-16T13:35:58;93502.91;;;7.56;55.23
71057;BME280;58380;48.312;9.246;2023-03-16T13:38:25;93527.81;;;7.93;51.17
71057;BME280;58380;48.312;9.246;2023-03-16T13:40:55;93531.44;;;8.31;50.91
71057;BME280;58380;48.312;9.246;2023-03-16T13:43:27;93499.03;;;8.03;55.76
71057;BME280;58380;48.312;9.246;2023-03-16T13:45:55;93508.88;;;8.13;56.93
71057;BME280;58380;48.312;9.246;2023-03-16T13:48:21;93491.94;;;8.04;54.67
71057;BME280;58380;48.312;9.246;2023-03-16T13:50:55;93495.13;;;8.06;54.43
71057;BME280;58380;48.312;9.246;2023-03-16T13:53:29;93491.09;;;7.98;56.37
71057;BME280;58380;48.312;9.246;2023-03-16T13:55:58;93508.25;;;8.06;57.33
71057;BME280;58380;48.312;9.246;2023-03-16T13:58:32;93513.41;;;8.17;53.37
71057;BME280;58380;48.312;9.246;2023-03-16T14:01:01;93511.94;;;8.27;53.26
71057;BME280;58380;48.312;9.246;2023-03-16T14:03:38;93517.25;;;8.54;51.16
71057;BME280;58380;48.312;9.246;2023-03-16T14:06:15;93518.50;;;8.73;50.96
71057;BME280;58380;48.312;9.246;2023-03-16T14:08:48;93515.81;;;8.95;51.18
71057;BME280;58380;48.312;9.246;2023-03-16T14:11:16;93512.25;;;9.12;53.56
71057;BME280;58380;48.312;9.246;2023-03-16T14:13:42;93453.28;;;8.80;49.32
71057;BME280;58380;48.312;9.246;2023-03-16T14:16:16;93504.72;;;9.25;46.49
71057;BME280;58380;48.312;9.246;2023-03-16T14:18:45;93512.97;;;9.34;50.15
71057;BME280;58380;48.312;9.246;2023-03-16T14:21:24;93507.34;;;9.25;51.08
71057;BME280;58380;48.312;9.246;2023-03-16T14:23:55;93497.56;;;9.21;50.47
71057;BME280;58380;48.312;9.246;2023-03-16T14:26:23;93493.25;;;9.42;48.70
71057;BME280;58380;48.312;9.246;2023-03-16T14:31:38;93463.41;;;9.74;50.80
71057;BME280;58380;48.312;9.246;2023-03-16T14:34:27;93481.69;;;10.01;51.02
71057;BME280;58380;48.312;9.246;2023-03-16T14:39:35;93456.75;;;9.66;46.06
71057;BME280;58380;48.312;9.246;2023-03-16T14:42:02;93478.78;;;9.92;47.57
71057;BME280;58380;48.312;9.246;2023-03-16T14:44:31;93475.88;;;9.88;47.51
71057;BME280;58380;48.312;9.246;2023-03-16T14:47:01;93464.78;;;9.86;49.75
71057;BME280;58380;48.312;9.246;2023-03-16T14:49:31;93416.47;;;8.85;51.61
71057;BME280;58380;48.312;9.246;2023-03-16T14:52:04;93445.69;;;9.16;54.52
71057;BME280;58380;48.312;9.246;2023-03-16T14:54:44;93433.94;;;8.97;53.59
71057;BME280;58380;48.312;9.246;2023-03-16T14:57:15;93461.13;;;9.07;55.60
71057;BME280;58380;48.312;9.246;2023-03-16T14:59:41;93464.28;;;9.04;55.20
71057;BME280;58380;48.312;9.246;2023-03-16T15:02:16;93457.38;;;8.66;54.07
71057;BME280;58380;48.312;9.246;2023-03-16T15:04:44;93459.72;;;8.62;55.01
71057;BME280;58380;48.312;9.246;2023-03-16T15:07:20;93458.88;;;8.57;55.14
71057;BME280;58380;48.312;9.246;2023-03-16T15:09:52;93453.28;;;8.80;55.19
71057;BME280;58380;48.312;9.246;2023-03-16T15:12:20;93469.56;;;9.04;53.41
71057;BME280;58380;48.312;9.246;2023-03-16T15:14:49;93445.34;;;8.75;53.43
71057;BME280;58380;48.312;9.246;2023-03-16T15:17:33;93413.59;;;8.55;54.12
71057;BME280;58380;48.312;9.246;2023-03-16T15:19:58;93466.84;;;8.94;53.33
71057;BME280;58380;48.312;9.246;2023-03-16T15:22:28;93461.09;;;9.02;53.81
71057;BME280;58380;48.312;9.246;2023-03-16T15:25:05;93422.53;;;8.27;55.77
71057;BME280;58380;48.312;9.246;2023-03-16T15:27:44;93446.44;;;8.25;56.25
71057;BME280;58380;48.312;9.246;2023-03-16T15:30:20;93446.09;;;8.16;56.34
71057;BME280;58380;48.312;9.246;2023-03-16T15:32:48;93466.41;;;8.26;56.91
71057;BME280;58380;48.312;9.246;2023-03-16T15:35:15;93463.50;;;8.23;56.44
71057;BME280;58380;48.312;9.246;2023-03-16T15:37:40;93464.88;;;8.30;57.03
71057;BME280;58380;48.312;9.246;2023-03-16T15:40:18;93470.72;;;8.32;57.46
71057;BME280;58380;48.312;9.246;2023-03-16T15:42:47;93423.50;;;8.20;56.97
71057;BME280;58380;48.312;9.246;2023-03-16T15:45:15;93456.94;;;8.47;57.81
71057;BME280;58380;48.312;9.246;2023-03-16T15:47:44;93452.28;;;8.54;57.73
71057;BME280;58380;48.312;9.246;2023-03-16T15:50:12;93458.66;;;8.63;56.30
71057;BME280;58380;48.312;9.246;2023-03-16T15:52:42;93431.47;;;8.53;57.04
71057;BME280;58380;48.312;9.246;2023-03-16T15:55:23;93457.81;;;8.58;56.64
71057;BME280;58380;48.312;9.246;2023-03-16T15:57:58;93473.56;;;8.53;55.69
71057;BME280;58380;48.312;9.246;2023-03-16T16:00:35;93458.75;;;8.19;56.39
71057;BME280;58380;48.312;9.246;2023-03-16T16:03:03;93476.88;;;8.21;57.42
71057;BME280;58380;48.312;9.246;2023-03-16T16:05:31;93470.34;;;8.24;57.18
71057;BME280;58380;48.312;9.246;2023-03-16T16:07:58;93474.47;;;8.14;58.24
71057;BME280;58380;48.312;9.246;2023-03-16T16:10:24;93470.72;;;8.10;58.13
71057;BME280;58380;48.312;9.246;2023-03-16T16:12:52;93444.28;;;7.95;58.18
71057;BME280;58380;48.312;9.246;2023-03-16T16:17:50;93467.44;;;7.98;58.12
71057;BME280;58380;48.312;9.246;2023-03-16T16:20:25;93464.31;;;8.01;58.71
71057;BME280;58380;48.312;9.246;2023-03-16T16:22:54;93473.84;;;8.07;58.88
71057;BME280;58380;48.312;9.246;2023-03-16T16:25:26;93478.56;;;8.05;59.17
71057;BME280;58380;48.312;9.246;2023-03-16T16:27:59;93483.47;;;7.96;58.59
71057;BME280;58380;48.312;9.246;2023-03-16T16:30:27;93441.84;;;7.66;58.15
71057;BME280;58380;48.312;9.246;2023-03-16T16:32:55;93465.84;;;7.75;59.23
71057;BME280;58380;48.312;9.246;2023-03-16T16:35:25;93478.34;;;7.68;60.51
71057;BME280;58380;48.312;9.246;2023-03-16T16:37:52;93464.47;;;7.50;61.00
71057;BME280;58380;48.312;9.246;2023-03-16T16:40:20;93463.81;;;7.60;60.70
71057;BME280;58380;48.312;9.246;2023-03-16T16:42:49;93461.97;;;7.61;60.89
71057;BME280;58380;48.312;9.246;2023-03-16T16:45:22;93463.03;;;7.60;60.96
71057;BME280;58380;48.312;9.246;2023-03-16T16:47:51;93459.72;;;7.47;61.80
71057;BME280;58380;48.312;9.246;2023-03-16T16:50:24;93455.03;;;7.32;62.02
71057;BME280;58380;48.312;9.246;2023-03-16T16:52:53;93460.22;;;7.27;62.69
71057;BME280;58380;48.312;9.246;2023-03-16T16:55:20;93454.41;;;7.08;62.37
71057;BME280;58380;48.312;9.246;2023-03-16T16:57:48;93470.81;;;7.16;62.84
71057;BME280;58380;48.312;9.246;2023-03-16T17:00:23;93461.66;;;7.01;62.72
71057;BME280;58380;48.312;9.246;2023-03-16T17:02:51;93452.91;;;6.96;63.63
71057;BME280;58380;48.312;9.246;2023-03-16T17:05:24;93470.59;;;7.00;63.01
71057;BME280;58380;48.312;9.246;2023-03-16T17:07:52;93460.56;;;6.97;62.23
71057;BME280;58380;48.312;9.246;2023-03-16T17:10:24;93445.13;;;6.84;62.11
71057;BME280;58380;48.312;9.246;2023-03-16T17:12:53;93463.34;;;6.90;62.61
71057;BME280;58380;48.312;9.246;2023-03-16T17:15:25;93460.16;;;6.88;62.11
71057;BME280;58380;48.312;9.246;2023-03-16T17:18:00;93424.53;;;6.59;62.54
71057;BME280;58380;48.312;9.246;2023-03-16T17:20:28;93458.81;;;6.69;63.28
71057;BME280;58380;48.312;9.246;2023-03-16T17:22:55;93464.28;;;6.67;62.81
71057;BME280;58380;48.312;9.246;2023-03-16T17:25:21;93436.28;;;6.39;62.86
71057;BME280;58380;48.312;9.246;2023-03-16T17:27:49;93446.03;;;6.44;62.75
71057;BME280;58380;48.312;9.246;2023-03-16T17:30:24;93471.66;;;6.54;62.67
71057;BME280;58380;48.312;9.246;2023-03-16T17:32:54;93434.44;;;6.23;62.58
71057;BME280;58380;48.312;9.246;2023-03-16T17:35:23;93447.72;;;6.33;62.84
71057;BME280;58380;48.312;9.246;2023-03-16T17:37:48;93455.81;;;6.32;63.07
71057;BME280;58380;48.312;9.246;2023-03-16T17:40:16;93467.72;;;6.22;64.84
71057;BME280;58380;48.312;9.246;2023-03-16T17:42:44;93480.38;;;6.14;65.89
71057;BME280;58380;48.312;9.246;2023-03-16T17:45:16;93443.75;;;5.90;66.73
71057;BME280;58380;48.312;9.246;2023-03-16T17:47:45;93447.44;;;5.77;67.43
71057;BME280;58380;48.312;9.246;2023-03-16T17:50:21;93477.38;;;5.81;68.22
71057;BME280;58380;48.312;9.246;2023-03-16T17:52:51;93475.47;;;5.65;68.51
71057;BME280;58380;48.312;9.246;2023-03-16T17:55:18;93443.44;;;5.34;69.00
71057;BME280;58380;48.312;9.246;2023-03-16T17:57:52;93451.28;;;5.34;69.86
71057;BME280;58380;48.312;9.246;2023-03-16T18:00:21;93468.47;;;5.30;71.45
71057;BME280;58380;48.312;9.246;2023-03-16T18:02:55;93454.69;;;5.11;71.63
71057;BME280;58380;48.312;9.246;2023-03-16T18:05:29;93455.06;;;5.15;71.54
71057;BME280;58380;48.312;9.246;2023-03-16T18:08:09;93453.56;;;5.07;70.76
71057;BME280;58380;48.312;9.246;2023-03-16T18:10:46;93425.13;;;4.99;69.30
71057;BME280;58380;48.312;9.246;2023-03-16T18:13:44;93455.38;;;5.18;68.83
71057;BME280;58380;48.312;9.246;2023-03-16T18:16:14;93459.13;;;5.23;68.48
71057;BME280;58380;48.312;9.246;2023-03-16T18:18:57;93470.50;;;5.16;68.59
71057;BME280;58380;48.312;9.246;2023-03-16T18:21:24;93466.19;;;5.10;68.44
71057;BME280;58380;48.312;9.246;2023-03-16T18:23:52;93449.81;;;5.03;67.84
71057;BME280;58380;48.312;9.246;2023-03-16T18:26:19;93459.59;;;5.19;68.70
71057;BME280;58380;48.312;9.246;2023-03-16T18:28:45;93469.38;;;5.24;68.65
71057;BME280;58380;48.312;9.246;2023-03-16T18:31:22;93467.09;;;5.16;68.45
71057;BME280;58380;48.312;9.246;2023-03-16T18:33:52;93456.19;;;5.07;68.15
71057;BME280;58380;48.312;9.246;2023-03-16T18:36:25;93465.50;;;5.03;67.98
71057;BME280;58380;48.312;9.246;2023-03-16T18:38:53;93466.66;;;5.07;68.20
71057;BME280;58380;48.312;9.246;2023-03-16T18:41:26;93466.19;;;4.98;69.25
71057;BME280;58380;48.312;9.246;2023-03-16T18:43:56;93455.72;;;4.87;68.93
71057;BME280;58380;48.312;9.246;2023-03-16T18:48:57;93459.34;;;4.86;67.99
71057;BME280;58380;48.312;9.246;2023-03-16T18:51:26;93467.31;;;4.91;68.58
71057;BME280;58380;48.312;9.246;2023-03-16T18:53:53;93477.69;;;4.97;68.49
71057;BME280;58380;48.312;9.246;2023-03-16T18:56:26;93397.34;;;4.39;68.85
71057;BME280;58380;48.312;9.246;2023-03-16T18:58:54;93480.84;;;4.88;69.17
71057;BME280;58380;48.312;9.246;2023-03-16T19:01:26;93464.84;;;4.84;68.84
71057;BME280;58380;48.312;9.246;2023-03-16T19:03:54;93463.59;;;4.87;68.79
71057;BME280;58380;48.312;9.246;2023-03-16T19:06:28;93476.66;;;4.87;69.25
71057;BME280;58380;48.312;9.246;2023-03-16T19:09:02;93453.19;;;4.68;69.03
71057;BME280;58380;48.312;9.246;2023-03-16T19:11:30;93474.34;;;4.79;68.97
71057;BME280;58380;48.312;9.246;2023-03-16T19:13:56;93467.19;;;4.74;69.20
71057;BME280;58380;48.312;9.246;2023-03-16T19:16:22;93448.50;;;4.59;69.61
71057;BME280;58380;48.312;9.246;2023-03-16T19:18:47;93463.66;;;4.68;69.80
71057;BME280;58380;48.312;9.246;2023-03-16T19:21:17;93464.56;;;4.62;70.83
71057;BME280;58380;48.312;9.246;2023-03-16T19:23:53;93471.03;;;4.60;71.02
71057;BME280;58380;48.312;9.246;2023-03-16T19:26:22;93427.91;;;4.27;70.38
71057;BME280;58380;48.312;9.246;2023-03-16T19:28:48;93375.47;;;3.98;71.02
71057;BME280;58380;48.312;9.246;2023-03-16T19:31:19;93464.44;;;4.57;71.54
71057;BME280;58380;48.312;9.246;2023-03-16T19:33:48;93460.56;;;4.48;71.41
71057;BME280;58380;48.312;9.246;2023-03-16T19:36:21;93459.75;;;4.47;71.64
71057;BME280;58380;48.312;9.246;2023-03-16T19:38:49;93457.69;;;4.38;72.32
71057;BME280;58380;48.312;9.246;2023-03-16T19:41:19;93461.88;;;4.39;72.16
71057;BME280;58380;48.312;9.246;2023-03-16T19:43:51;93473.56;;;4.36;72.67
71057;BME280;58380;48.312;9.246;2023-03-16T19:46:18;93448.19;;;4.13;72.68
71057;BME280;58380;48.312;9.246;2023-03-16T19:48:44;93468.56;;;4.23;73.34
71057;BME280;58380;48.312;9.246;2023-03-16T19:51:14;93443.69;;;4.02;73.46
71057;BME280;58380;48.312;9.246;2023-03-16T19:53:42;93464.06;;;4.11;73.68
71057;BME280;58380;48.312;9.246;2023-03-16T19:56:12;93439.25;;;3.91;74.31
71057;BME280;58380;48.312;9.246;2023-03-16T19:58:39;93419.63;;;3.70;74.54
71057;BME280;58380;48.312;9.246;2023-03-16T20:01:17;93462.22;;;4.00;74.65
71057;BME280;58380;48.312;9.246;2023-03-16T20:03:48;93440.34;;;3.83;74.93
71057;BME280;58380;48.312;9.246;2023-03-16T20:06:16;93462.28;;;3.94;75.29
71057;BME280;58380;48.312;9.246;2023-03-16T20:08:44;93428.59;;;3.74;74.91
71057;BME280;58380;48.312;9.246;2023-03-16T20:11:31;93458.09;;;3.93;75.20
71057;BME280;58380;48.312;9.246;2023-03-16T20:13:57;93427.94;;;3.78;75.28
71057;BME280;58380;48.312;9.246;2023-03-16T20:16:32;93431.34;;;3.79;75.07
71057;BME280;58380;48.312;9.246;2023-03-16T20:19:01;93437.53;;;3.84;75.32
71057;BME280;58380;48.312;9.246;2023-03-16T20:21:32;93430.78;;;3.77;75.41
71057;BME280;58380;48.312;9.246;2023-03-16T20:23:57;93411.88;;;3.63;75.71
71057;BME280;58380;48.312;9.246;2023-03-16T20:26:26;93430.63;;;3.72;75.63
71057;BME280;58380;48.312;9.246;2023-03-16T20:28:57;93441.22;;;3.77;76.05
71057;BME280;58380;48.312;9.246;2023-03-16T20:31:26;93447.31;;;3.71;76.45
71057;BME280;58380;48.312;9.246;2023-03-16T20:33:55;93400.50;;;3.39;76.48
71057;BME280;58380;48.312;9.246;2023-03-16T20:36:22;93412.78;;;3.38;76.82
71057;BME280;58380;48.312;9.246;2023-03-16T20:38:49;93438.84;;;3.57;77.14
71057;BME280;58380;48.312;9.246;2023-03-16T20:41:19;93452.44;;;3.47;77.52
71057;BME280;58380;48.312;9.246;2023-03-16T20:43:48;93431.25;;;3.18;78.23
71057;BME280;58380;48.312;9.246;2023-03-16T20:46:16;93419.94;;;3.06;78.13
71057;BME280;58380;48.312;9.246;2023-03-16T20:48:46;93412.69;;;2.90;78.70
71057;BME280;58380;48.312;9.246;2023-03-16T20:51:13;93422.03;;;2.97;78.92
71057;BME280;58380;48.312;9.246;2023-03-16T20:53:44;93448.19;;;3.09;79.52
71057;BME280;58380;48.312;9.246;2023-03-16T20:56:15;93440.94;;;2.93;80.30
71057;BME280;58380;48.312;9.246;2023-03-16T20:58:44;93437.63;;;2.79;80.92
71057;BME280;58380;48.312;9.246;2023-03-16T21:01:12;93415.53;;;2.63;80.94
71057;BME280;58380;48.312;9.246;2023-03-16T21:03:47;93436.19;;;2.65;80.84
71057;BME280;58380;48.312;9.246;2023-03-16T21:06:25;93420.63;;;2.51;81.28
71057;BME280;58380;48.312;9.246;2023-03-16T21:08:56;93435.84;;;2.54;81.74
71057;BME280;58380;48.312;9.246;2023-03-16T21:11:28;93435.31;;;2.46;82.52